Time;durP1;ratioP1;P1;durP2;ratioP2;P2;SDS_P1;SDS_P2;PMS_P1;PMS_P2;Temp;Humidity;BMP_temperature;BMP_pressure;BME280_temperature;BME280_humidity;BME280_pressure;Samples;Min_cycle;Max_cycle;Signal;HPM_P1;HPM_P2
2021/06/23 00:00:53;;;;;;;15.93;14.23;;;17.80;87.60;;;;;;5137044;27;20458;-74
2021/06/23 00:03:20;;;;;;;19.33;15.27;;;17.70;87.40;;;;;;5137033;27;20519;-74
2021/06/23 00:05:47;;;;;;;23.10;14.57;;;17.70;87.40;;;;;;5136944;27;20449;-74
2021/06/23 00:08:13;;;;;;;15.77;14.03;;;17.70;87.60;;;;;;5136938;27;20450;-74
2021/06/23 00:10:40;;;;;;;17.90;15.07;;;17.70;87.50;;;;;;5136844;27;20458;-74
2021/06/23 00:13:09;;;;;;;17.27;15.07;;;17.70;87.30;;;;;;5136871;27;20541;-74
2021/06/23 00:15:37;;;;;;;18.40;13.30;;;17.70;87.10;;;;;;5136855;27;20446;-74
2021/06/23 00:18:05;;;;;;;19.17;14.50;;;17.70;87.40;;;;;;5136755;27;20427;-74
2021/06/23 00:20:32;;;;;;;15.43;13.80;;;17.70;87.30;;;;;;5136293;27;20840;-74
2021/06/23 00:22:59;;;;;;;16.10;14.50;;;17.70;87.30;;;;;;5136345;27;20958;-74
2021/06/23 00:25:26;;;;;;;20.13;14.50;;;17.70;87.00;;;;;;5136664;27;20442;-74
2021/06/23 00:27:52;;;;;;;16.97;15.20;;;17.70;87.20;;;;;;5136477;27;20505;-74
2021/06/23 00:30:20;;;;;;;15.17;13.43;;;17.70;87.30;;;;;;5136418;27;20466;-74
2021/06/23 00:32:51;;;;;;;14.17;12.83;;;17.70;87.30;;;;;;5136527;27;20446;-74
2021/06/23 00:35:17;;;;;;;14.67;13.13;;;17.60;87.20;;;;;;5136471;27;20429;-74
2021/06/23 00:37:44;;;;;;;15.80;13.17;;;17.60;87.20;;;;;;5136019;27;20807;-73
2021/06/23 00:40:12;;;;;;;16.50;14.90;;;17.60;87.40;;;;;;5136318;27;20465;-74
2021/06/23 00:42:42;;;;;;;16.37;14.17;;;17.60;87.30;;;;;;5136323;27;20442;-74
2021/06/23 00:45:12;;;;;;;15.90;14.43;;;17.60;87.20;;;;;;5135839;27;20491;-74
2021/06/23 00:47:42;;;;;;;17.77;13.13;;;17.60;87.20;;;;;;5136154;27;20466;-74
2021/06/23 00:50:12;;;;;;;16.30;13.53;;;17.60;87.20;;;;;;5135825;27;20886;-74
2021/06/23 00:52:39;;;;;;;15.30;13.63;;;17.60;87.10;;;;;;5136211;27;20448;-74
2021/06/23 00:55:08;;;;;;;15.47;13.97;;;17.50;87.10;;;;;;5136031;27;20451;-74
2021/06/23 00:57:35;;;;;;;19.17;14.10;;;17.50;87.10;;;;;;5135896;27;20441;-74
2021/06/23 01:00:02;;;;;;;15.23;13.60;;;17.50;87.00;;;;;;5134787;27;20464;-74
2021/06/23 01:02:29;;;;;;;16.63;13.00;;;17.50;86.90;;;;;;5135908;27;20490;-74
2021/06/23 01:04:58;;;;;;;15.70;14.03;;;17.50;86.90;;;;;;5135872;27;20450;-74
2021/06/23 01:07:26;;;;;;;19.00;13.23;;;17.50;86.90;;;;;;5135385;27;20840;-74
2021/06/23 01:09:56;;;;;;;15.07;13.53;;;17.50;87.00;;;;;;5135621;27;20825;-74
2021/06/23 01:12:46;;;;;;;20.20;14.13;;;17.50;86.80;;;;;;5135967;27;20437;-74
2021/06/23 01:15:15;;;;;;;14.73;11.63;;;17.50;86.80;;;;;;5135670;27;20450;-74
2021/06/23 01:17:42;;;;;;;23.27;15.00;;;17.50;86.70;;;;;;5135625;27;20434;-74
2021/06/23 01:20:11;;;;;;;16.20;14.40;;;17.50;86.60;;;;;;5135152;27;20481;-74
2021/06/23 01:22:42;;;;;;;15.67;13.87;;;17.50;86.90;;;;;;5135491;27;20452;-74
2021/06/23 01:25:12;;;;;;;13.70;12.50;;;17.50;86.90;;;;;;5135526;27;20430;-74
2021/06/23 01:27:40;;;;;;;14.70;13.20;;;17.50;86.90;;;;;;5135063;27;20895;-74
2021/06/23 01:30:08;;;;;;;21.23;13.67;;;17.40;86.90;;;;;;5135268;27;20465;-74
2021/06/23 01:32:35;;;;;;;14.97;13.47;;;17.40;87.00;;;;;;5135303;27;20442;-74
2021/06/23 01:35:02;;;;;;;15.07;12.77;;;17.40;87.30;;;;;;5135218;27;20442;-74
2021/06/23 01:37:30;;;;;;;15.47;13.83;;;17.40;87.30;;;;;;5135238;27;20449;-74
2021/06/23 01:40:00;;;;;;;15.70;14.00;;;17.40;87.30;;;;;;5135061;27;20462;-74
2021/06/23 01:42:27;;;;;;;15.93;14.53;;;17.40;87.00;;;;;;5135106;27;20450;-74
2021/06/23 01:44:54;;;;;;;15.13;13.67;;;17.40;87.00;;;;;;5135065;27;20442;-74
2021/06/23 01:47:20;;;;;;;20.50;15.17;;;17.40;87.10;;;;;;5135031;27;20466;-74
2021/06/23 01:49:47;;;;;;;22.53;15.17;;;17.40;87.20;;;;;;5134590;27;20986;-74
2021/06/23 01:52:14;;;;;;;15.47;13.87;;;17.40;87.20;;;;;;5134946;27;20437;-74
2021/06/23 01:54:42;;;;;;;15.00;13.60;;;17.40;87.00;;;;;;5134620;27;20927;-74
2021/06/23 01:57:11;;;;;;;16.27;14.63;;;17.40;86.90;;;;;;5134872;27;20438;-74
2021/06/23 01:59:39;;;;;;;18.97;13.20;;;17.40;87.00;;;;;;5134710;27;20468;-74
2021/06/23 02:02:21;;;;;;;17.77;15.87;;;17.40;86.80;;;;;;5134808;27;20806;-74
2021/06/23 02:04:51;;;;;;;16.00;14.30;;;17.40;86.80;;;;;;5134780;27;20426;-74
2021/06/23 02:07:47;;;;;;;15.03;13.43;;;17.40;86.80;;;;;;5134691;27;20478;-74
2021/06/23 02:10:30;;;;;;;17.03;14.03;;;17.40;86.80;;;;;;5111629;27;20473;-74
2021/06/23 02:13:36;;;;;;;19.63;15.07;;;17.40;86.90;;;;;;5134042;27;20899;-74
2021/06/23 02:16:09;;;;;;;16.83;15.03;;;17.30;87.00;;;;;;5134633;27;20422;-74
2021/06/23 02:18:37;;;;;;;17.03;14.33;;;17.40;87.10;;;;;;5134612;27;20414;-74
2021/06/23 02:21:05;;;;;;;18.20;14.20;;;17.40;87.10;;;;;;5134062;27;20489;-74
2021/06/23 02:23:36;;;;;;;15.43;13.93;;;17.30;87.10;;;;;;5113951;28;20439;-74
2021/06/23 02:26:03;;;;;;;16.63;14.40;;;17.30;87.10;;;;;;5113973;28;20794;-74
2021/06/23 02:28:30;;;;;;;16.27;13.30;;;17.30;87.30;;;;;;5113875;28;20474;-74
2021/06/23 02:30:58;;;;;;;16.77;13.87;;;17.30;87.10;;;;;;5113630;28;20455;-74
2021/06/23 02:33:26;;;;;;;19.33;15.57;;;17.30;87.10;;;;;;5113993;28;20423;-74
2021/06/23 02:35:55;;;;;;;17.70;15.80;;;17.30;87.20;;;;;;5113848;28;20447;-74
2021/06/23 02:38:22;;;;;;;15.63;14.20;;;17.30;87.10;;;;;;5113841;28;20443;-74
2021/06/23 02:40:49;;;;;;;16.40;14.70;;;17.30;87.20;;;;;;5113751;28;20469;-74
2021/06/23 02:43:16;;;;;;;16.30;13.73;;;17.30;87.30;;;;;;5113491;28;20458;-74
2021/06/23 02:45:43;;;;;;;15.87;14.30;;;17.30;87.40;;;;;;5113800;28;20450;-74
2021/06/23 02:48:10;;;;;;;15.27;13.77;;;17.30;87.30;;;;;;5113662;28;20482;-74
2021/06/23 02:50:47;;;;;;;17.27;14.43;;;17.30;87.10;;;;;;5113660;28;20458;-74
2021/06/23 02:53:14;;;;;;;15.70;14.27;;;17.30;87.20;;;;;;5113800;28;20439;-74
2021/06/23 02:55:42;;;;;;;16.90;15.20;;;17.30;87.30;;;;;;5113385;28;20940;-74
2021/06/23 02:58:09;;;;;;;16.90;15.30;;;17.30;87.30;;;;;;5113698;28;20442;-74
2021/06/23 03:00:36;;;;;;;16.20;13.90;;;17.30;87.30;;;;;;5113629;28;20467;-74
2021/06/23 03:03:03;;;;;;;16.20;14.70;;;17.30;87.30;;;;;;5113661;28;20445;-74
2021/06/23 03:05:30;;;;;;;19.10;16.10;;;17.20;87.10;;;;;;5113307;28;20954;-74
2021/06/23 03:07:58;;;;;;;20.30;15.90;;;17.20;87.20;;;;;;5113534;28;20475;-74
2021/06/23 03:10:25;;;;;;;18.37;15.00;;;17.20;87.40;;;;;;5113502;28;20463;-74
2021/06/23 03:12:51;;;;;;;20.90;15.30;;;17.20;87.50;;;;;;5113551;28;20453;-74
2021/06/23 03:15:18;;;;;;;19.17;15.30;;;17.20;87.30;;;;;;5113959;28;20451;-74
2021/06/23 03:17:45;;;;;;;19.30;16.60;;;17.20;87.30;;;;;;5113159;28;20956;-74
2021/06/23 03:20:13;;;;;;;16.70;14.30;;;17.20;87.30;;;;;;5113132;28;20475;-74
2021/06/23 03:22:40;;;;;;;18.40;15.07;;;17.20;87.50;;;;;;5113443;28;20439;-74
2021/06/23 03:25:09;;;;;;;17.13;15.13;;;17.20;87.70;;;;;;5116951;28;20458;-74
2021/06/23 03:27:36;;;;;;;20.73;14.63;;;17.20;87.70;;;;;;5117153;28;20470;-74
2021/06/23 03:30:04;;;;;;;20.37;14.40;;;17.20;87.60;;;;;;5117101;28;20466;-74
2021/06/23 03:32:30;;;;;;;23.60;15.07;;;17.20;87.30;;;;;;5117343;28;20442;-74
2021/06/23 03:34:57;;;;;;;23.23;14.90;;;17.20;87.30;;;;;;5117083;28;20442;-74
2021/06/23 03:37:24;;;;;;;15.23;13.90;;;17.20;87.20;;;;;;5116725;28;20924;-74
2021/06/23 03:39:50;;;;;;;16.17;14.10;;;17.20;87.40;;;;;;5116878;28;20475;-74
2021/06/23 03:42:18;;;;;;;21.50;17.10;;;17.20;87.20;;;;;;5116960;28;20442;-74
2021/06/23 03:44:45;;;;;;;18.03;14.13;;;17.10;87.30;;;;;;5116893;28;20446;-74
2021/06/23 03:47:12;;;;;;;16.83;14.33;;;17.20;87.30;;;;;;5116785;28;20449;-74
2021/06/23 03:49:39;;;;;;;18.30;13.33;;;17.20;86.90;;;;;;5116416;28;20964;-74
2021/06/23 03:52:07;;;;;;;18.27;15.17;;;17.20;86.90;;;;;;5116633;28;20446;-74
2021/06/23 03:54:33;;;;;;;18.50;13.87;;;17.10;86.60;;;;;;5116443;28;20951;-74
2021/06/23 03:57:00;;;;;;;15.67;14.07;;;17.10;86.50;;;;;;5116699;28;20859;-74
2021/06/23 03:59:28;;;;;;;17.93;14.40;;;17.10;86.70;;;;;;5116581;28;20446;-74
2021/06/23 04:01:55;;;;;;;18.23;14.27;;;17.10;86.90;;;;;;5116602;28;20446;-74
2021/06/23 04:04:22;;;;;;;18.87;14.20;;;17.10;86.90;;;;;;5116555;28;20466;-73
2021/06/23 04:06:49;;;;;;;16.47;14.77;;;17.10;87.00;;;;;;5116511;28;20454;-74
2021/06/23 04:09:15;;;;;;;17.70;14.17;;;17.10;87.10;;;;;;5116362;28;20462;-74
2021/06/23 04:11:42;;;;;;;16.37;14.10;;;17.10;87.20;;;;;;5116375;28;20526;-74
2021/06/23 04:14:09;;;;;;;18.23;12.90;;;17.10;87.20;;;;;;5115957;28;20445;-74
2021/06/23 04:16:37;;;;;;;17.13;14.47;;;17.10;87.30;;;;;;5116279;28;20445;-73
2021/06/23 04:19:04;;;;;;;15.60;14.00;;;17.10;87.00;;;;;;5115785;28;20933;-74
2021/06/23 04:21:30;;;;;;;14.67;13.13;;;17.20;87.20;;;;;;5116175;28;20470;-74
2021/06/23 04:23:57;;;;;;;14.93;13.10;;;17.20;87.20;;;;;;5116158;28;20435;-74
2021/06/23 04:26:24;;;;;;;17.60;14.70;;;17.20;87.20;;;;;;5115797;28;20989;-74
2021/06/23 04:28:52;;;;;;;15.83;13.30;;;17.20;87.00;;;;;;5115945;28;20482;-74
2021/06/23 04:31:18;;;;;;;15.23;13.63;;;17.20;87.10;;;;;;5115939;28;20550;-74
2021/06/23 04:33:47;;;;;;;15.47;13.87;;;17.20;86.90;;;;;;5115908;28;20487;-73
2021/06/23 04:36:13;;;;;;;19.57;14.80;;;17.20;86.60;;;;;;5115559;28;20447;-74
2021/06/23 04:38:40;;;;;;;18.33;13.57;;;17.20;86.60;;;;;;5115987;28;20427;-74
2021/06/23 04:41:07;;;;;;;14.23;12.70;;;17.20;86.60;;;;;;5115784;28;20459;-74
2021/06/23 04:43:33;;;;;;;16.30;14.57;;;17.20;86.60;;;;;;5115722;28;20442;-74
2021/06/23 04:46:00;;;;;;;19.67;14.53;;;17.20;86.60;;;;;;5115808;28;20446;-74
2021/06/23 04:48:27;;;;;;;15.10;13.70;;;17.20;86.50;;;;;;5115600;28;20478;-74
2021/06/23 04:50:55;;;;;;;16.17;13.07;;;17.20;86.20;;;;;;5115216;28;20967;-74
2021/06/23 04:53:22;;;;;;;15.70;12.27;;;17.20;85.90;;;;;;5116212;28;20430;-74
2021/06/23 04:55:48;;;;;;;16.37;13.43;;;17.20;85.80;;;;;;5115464;28;20473;-74
2021/06/23 04:58:16;;;;;;;17.60;13.83;;;17.20;85.80;;;;;;5115441;28;20442;-74
2021/06/23 05:00:43;;;;;;;14.57;13.27;;;17.20;85.60;;;;;;5115000;28;20838;-74
2021/06/23 05:03:10;;;;;;;17.50;14.80;;;17.30;85.80;;;;;;5115344;28;20442;-74
2021/06/23 05:05:39;;;;;;;16.40;13.00;;;17.30;86.00;;;;;;5115318;28;20439;-74
2021/06/23 05:08:07;;;;;;;13.43;12.13;;;17.40;86.10;;;;;;5114871;28;20851;-74
2021/06/23 05:10:35;;;;;;;15.53;13.83;;;17.40;85.90;;;;;;5115268;28;20478;-74
2021/06/23 05:13:01;;;;;;;19.60;12.97;;;17.40;85.60;;;;;;5115309;28;20430;-74
2021/06/23 05:15:29;;;;;;;14.27;12.77;;;17.50;85.50;;;;;;5115222;28;20451;-74
2021/06/23 05:17:57;;;;;;;16.70;14.13;;;17.50;85.10;;;;;;5115173;28;20842;-74
2021/06/23 05:20:24;;;;;;;21.87;13.87;;;17.50;84.70;;;;;;5114642;28;20493;-74
2021/06/23 05:22:51;;;;;;;16.33;12.33;;;17.50;84.50;;;;;;5115018;27;20443;-74
2021/06/23 05:25:20;;;;;;;13.97;12.60;;;17.60;84.60;;;;;;5114663;28;20497;-74
2021/06/23 05:27:47;;;;;;;14.73;12.03;;;17.60;84.80;;;;;;5114855;28;20809;-74
2021/06/23 05:30:15;;;;;;;16.40;12.93;;;17.60;84.60;;;;;;5114754;28;20474;-73
2021/06/23 05:32:42;;;;;;;14.57;12.80;;;17.60;84.50;;;;;;5114585;28;20955;-73
2021/06/23 05:35:09;;;;;;;13.83;12.40;;;17.70;84.70;;;;;;5114797;28;20485;-73
2021/06/23 05:37:36;;;;;;;14.30;12.80;;;17.70;84.90;;;;;;5114710;28;20443;-74
2021/06/23 05:40:04;;;;;;;17.47;12.97;;;17.70;84.50;;;;;;5114609;28;20474;-74
2021/06/23 05:42:32;;;;;;;18.87;13.13;;;17.70;84.00;;;;;;5114677;28;20439;-74
2021/06/23 05:44:59;;;;;;;15.87;12.50;;;17.70;84.20;;;;;;5114304;28;20811;-74
2021/06/23 05:47:26;;;;;;;16.03;12.37;;;17.80;84.50;;;;;;5113973;28;20445;-74
2021/06/23 05:49:53;;;;;;;16.67;12.40;;;17.80;84.50;;;;;;5114014;28;20831;-74
2021/06/23 05:52:19;;;;;;;17.50;13.33;;;17.80;84.30;;;;;;5115066;28;20466;-74
2021/06/23 05:54:46;;;;;;;25.97;13.50;;;17.80;83.90;;;;;;5114466;28;20442;-73
2021/06/23 05:57:13;;;;;;;14.43;12.93;;;17.90;84.10;;;;;;5114547;28;20458;-73
2021/06/23 05:59:41;;;;;;;16.30;13.20;;;17.90;84.00;;;;;;5114021;28;20455;-73
2021/06/23 06:02:08;;;;;;;15.83;13.57;;;17.90;84.20;;;;;;5114326;28;20447;-73
2021/06/23 06:04:35;;;;;;;17.20;13.63;;;17.90;84.50;;;;;;5114238;28;20804;-73
2021/06/23 06:07:02;;;;;;;15.03;13.43;;;17.90;84.70;;;;;;5114277;28;20446;-73
2021/06/23 06:09:28;;;;;;;20.20;13.00;;;18.00;84.50;;;;;;5114087;28;20824;-73
2021/06/23 06:11:55;;;;;;;14.53;12.97;;;18.00;84.40;;;;;;5114194;28;20434;-73
2021/06/23 06:14:22;;;;;;;13.80;12.50;;;18.10;84.00;;;;;;5113821;28;20928;-73
2021/06/23 06:16:50;;;;;;;15.40;12.60;;;18.10;83.40;;;;;;5114146;28;20431;-73
2021/06/23 06:19:17;;;;;;;15.07;13.53;;;18.10;83.30;;;;;;5113868;28;20430;-73
2021/06/23 06:21:43;;;;;;;14.47;12.70;;;18.10;83.20;;;;;;5113727;28;20447;-73
2021/06/23 06:24:10;;;;;;;16.00;12.83;;;18.20;83.30;;;;;;5113762;28;20427;-73
2021/06/23 06:26:37;;;;;;;14.57;12.30;;;18.20;83.50;;;;;;5113953;28;20446;-73
2021/06/23 06:29:04;;;;;;;13.00;11.90;;;18.20;83.00;;;;;;5113833;28;20481;-73
2021/06/23 06:31:31;;;;;;;13.17;11.77;;;18.30;83.00;;;;;;5113990;28;20467;-73
2021/06/23 06:33:59;;;;;;;14.67;12.20;;;18.30;82.00;;;;;;5114054;28;20476;-73
2021/06/23 06:36:25;;;;;;;14.93;12.40;;;18.40;82.00;;;;;;5113725;28;20817;-73
2021/06/23 06:38:52;;;;;;;18.60;12.30;;;18.50;82.20;;;;;;5113911;28;20435;-73
2021/06/23 06:41:20;;;;;;;15.90;12.17;;;18.50;81.70;;;;;;5113823;28;20480;-73
2021/06/23 06:43:46;;;;;;;15.17;11.60;;;18.60;81.20;;;;;;5113649;28;20446;-73
2021/06/23 06:46:13;;;;;;;13.43;11.20;;;18.70;81.50;;;;;;5113905;28;20465;-73
2021/06/23 06:48:40;;;;;;;12.10;10.13;;;18.80;81.50;;;;;;5113830;28;20475;-73
2021/06/23 06:51:08;;;;;;;15.00;12.00;;;18.90;81.20;;;;;;5113699;28;20516;-73
2021/06/23 06:53:35;;;;;;;15.03;11.67;;;19.00;81.00;;;;;;5113519;28;20808;-73
2021/06/23 06:56:01;;;;;;;13.43;12.07;;;19.10;80.50;;;;;;5113820;28;20443;-72
2021/06/23 06:58:28;;;;;;;14.60;11.10;;;19.20;79.80;;;;;;5116426;28;20435;-73
2021/06/23 07:00:55;;;;;;;15.53;11.40;;;19.20;79.30;;;;;;5117885;28;20828;-73
2021/06/23 07:03:22;;;;;;;16.93;11.80;;;19.30;79.20;;;;;;5117856;28;20438;-73
2021/06/23 07:05:48;;;;;;;12.83;10.43;;;19.30;78.80;;;;;;5117857;28;20443;-73
2021/06/23 07:08:16;;;;;;;13.33;11.13;;;19.30;78.10;;;;;;5117314;28;20427;-73
2021/06/23 07:10:44;;;;;;;11.53;10.43;;;19.30;78.00;;;;;;5117533;28;20493;-73
2021/06/23 07:13:10;;;;;;;13.47;11.50;;;19.30;78.10;;;;;;5117540;28;20442;-73
2021/06/23 07:15:37;;;;;;;15.10;12.70;;;19.30;77.90;;;;;;5117612;28;20443;-73
2021/06/23 07:18:05;;;;;;;16.10;11.00;;;19.20;77.90;;;;;;5117457;28;20453;-74
2021/06/23 07:20:32;;;;;;;12.83;11.53;;;19.20;77.80;;;;;;5117105;27;20480;-73
2021/06/23 07:22:58;;;;;;;12.90;11.57;;;19.20;77.60;;;;;;5117411;28;20447;-73
2021/06/23 07:25:26;;;;;;;14.00;11.23;;;19.20;77.90;;;;;;5118662;28;20467;-76
2021/06/23 07:27:53;;;;;;;13.93;9.90;;;19.20;78.20;;;;;;5117333;28;20434;-74
2021/06/23 07:30:22;;;;;;;12.47;9.97;;;19.20;78.10;;;;;;5116829;28;20478;-73
2021/06/23 07:32:51;;;;;;;17.73;11.57;;;19.20;77.90;;;;;;5117355;28;20431;-74
2021/06/23 07:38:07;;;;;;;13.03;11.00;;;19.10;78.20;;;;;;5117221;28;20761;-73
2021/06/23 07:40:44;;;;;;;13.10;11.03;;;19.10;78.00;;;;;;5117132;28;20466;-73
2021/06/23 07:43:10;;;;;;;15.47;10.93;;;19.10;78.30;;;;;;5117170;28;20438;-73
2021/06/23 07:45:39;;;;;;;13.13;10.50;;;19.10;77.70;;;;;;5116982;28;20442;-73
2021/06/23 07:48:06;;;;;;;14.77;12.07;;;19.10;77.60;;;;;;5116866;28;20446;-73
2021/06/23 07:50:39;;;;;;;17.50;12.00;;;19.10;77.50;;;;;;5116619;28;20482;-74
2021/06/23 07:53:09;;;;;;;16.53;11.60;;;19.20;77.60;;;;;;5116764;28;20427;-73
2021/06/23 07:55:48;;;;;;;12.93;11.53;;;19.20;77.80;;;;;;5116913;28;20431;-73
2021/06/23 08:09:32;;;;;;;13.37;11.20;;;19.30;77.40;;;;;;5115904;28;20482;-72
2021/06/23 08:12:17;;;;;;;17.10;13.40;;;19.40;77.90;;;;;;5117065;27;20514;-72
2021/06/23 08:14:44;;;;;;;13.27;11.77;;;19.40;78.50;;;;;;5116478;28;20832;-72
2021/06/23 08:17:11;;;;;;;13.33;11.60;;;19.50;78.80;;;;;;5116350;28;20450;-72
2021/06/23 08:19:39;;;;;;;14.23;12.93;;;19.60;78.50;;;;;;5115737;28;20479;-72
2021/06/23 08:22:10;;;;;;;16.07;12.60;;;19.60;78.60;;;;;;5116294;28;20512;-72
2021/06/23 08:24:36;;;;;;;16.23;13.77;;;19.80;78.30;;;;;;5116186;28;20518;-72
2021/06/23 08:27:05;;;;;;;12.73;11.33;;;19.80;78.30;;;;;;5116262;28;20426;-72
2021/06/23 08:29:32;;;;;;;13.83;12.47;;;19.80;78.00;;;;;;5115731;28;20510;-76
2021/06/23 08:31:59;;;;;;;15.13;13.60;;;19.90;77.40;;;;;;5116120;28;20428;-73
2021/06/23 08:34:28;;;;;;;18.20;13.67;;;19.90;77.00;;;;;;5116202;28;20786;-72
2021/06/23 08:36:54;;;;;;;20.17;13.47;;;19.90;77.10;;;;;;5116005;28;20447;-72
2021/06/23 08:39:21;;;;;;;14.70;12.00;;;20.00;77.10;;;;;;5115956;28;20419;-71
2021/06/23 08:41:48;;;;;;;19.20;12.07;;;20.00;77.90;;;;;;5115593;28;20450;-72
2021/06/23 08:44:16;;;;;;;16.27;13.47;;;20.10;76.40;;;;;;5115899;28;20441;-71
2021/06/23 08:46:43;;;;;;;12.97;11.57;;;20.20;76.60;;;;;;5115876;28;20431;-73
2021/06/23 08:49:10;;;;;;;17.43;12.90;;;20.30;76.60;;;;;;5115637;28;20479;-73
2021/06/23 08:51:39;;;;;;;16.40;12.63;;;20.30;76.50;;;;;;5115657;28;20463;-72
2021/06/23 08:54:06;;;;;;;13.60;12.00;;;20.40;76.40;;;;;;5115598;28;20482;-73
2021/06/23 08:56:33;;;;;;;15.67;11.60;;;20.50;75.20;;;;;;5115561;28;20450;-73
2021/06/23 08:59:02;;;;;;;21.17;13.17;;;20.50;74.80;;;;;;5115202;28;20435;-73
2021/06/23 09:01:30;;;;;;;18.57;12.50;;;20.60;74.80;;;;;;5115431;28;20473;-73
2021/06/23 09:04:04;;;;;;;18.60;13.63;;;20.70;75.00;;;;;;5115419;28;20443;-73
2021/06/23 09:06:45;;;;;;;20.10;14.37;;;20.80;74.60;;;;;;5115413;28;20877;-73
2021/06/23 09:09:17;;;;;;;18.07;14.10;;;20.90;74.60;;;;;;5115265;28;20465;-73
2021/06/23 09:11:45;;;;;;;19.27;12.53;;;21.10;74.20;;;;;;5115265;28;20423;-74
2021/06/23 09:14:12;;;;;;;11.57;10.30;;;21.10;72.80;;;;;;5115202;28;20443;-73
2021/06/23 09:17:01;;;;;;;15.50;12.53;;;21.30;71.90;;;;;;5115034;28;20435;-74
2021/06/23 09:19:28;;;;;;;12.70;11.30;;;21.50;71.50;;;;;;5114719;28;20826;-74
2021/06/23 09:21:55;;;;;;;15.47;10.97;;;21.60;71.00;;;;;;5113846;28;20439;-73
2021/06/23 09:24:33;;;;;;;14.57;12.40;;;21.60;70.70;;;;;;5115031;28;20438;-73
2021/06/23 09:27:00;;;;;;;13.73;10.67;;;21.60;70.00;;;;;;5115041;28;20430;-73
2021/06/23 09:29:27;;;;;;;14.73;12.70;;;21.60;69.80;;;;;;5114794;28;20463;-73
2021/06/23 09:31:58;;;;;;;17.43;12.00;;;21.50;69.30;;;;;;5114895;28;20438;-73
2021/06/23 09:34:26;;;;;;;15.90;11.80;;;21.50;69.40;;;;;;5114862;28;20439;-72
2021/06/23 09:36:54;;;;;;;14.63;11.73;;;21.50;69.00;;;;;;5114616;28;20523;-72
2021/06/23 09:39:22;;;;;;;12.70;11.20;;;21.40;70.00;;;;;;5114692;28;20438;-72
2021/06/23 09:41:49;;;;;;;15.37;12.07;;;21.40;69.90;;;;;;5114716;28;20446;-72
2021/06/23 09:44:17;;;;;;;13.73;11.30;;;21.40;70.10;;;;;;5114383;28;21027;-75
2021/06/23 09:46:45;;;;;;;18.10;12.60;;;21.30;69.70;;;;;;5114399;28;20900;-72
2021/06/23 09:49:16;;;;;;;17.37;13.60;;;21.20;69.80;;;;;;5114529;28;20553;-72
2021/06/23 09:51:51;;;;;;;19.83;11.80;;;21.20;69.60;;;;;;5114537;28;20431;-72
2021/06/23 09:54:20;;;;;;;15.53;11.20;;;21.10;70.50;;;;;;5114393;28;20426;-72
2021/06/23 09:56:48;;;;;;;14.27;11.10;;;21.10;70.70;;;;;;5114127;28;20936;-73
2021/06/23 09:59:32;;;;;;;13.30;11.90;;;21.20;71.00;;;;;;5114375;28;20442;-72
2021/06/23 10:01:59;;;;;;;18.17;12.63;;;21.10;70.70;;;;;;5114390;28;20427;-72
2021/06/23 10:04:33;;;;;;;15.57;12.73;;;21.10;71.00;;;;;;5114011;28;20963;-73
2021/06/23 10:07:01;;;;;;;13.37;12.07;;;21.10;71.60;;;;;;5114339;28;20500;-74
2021/06/23 10:09:30;;;;;;;14.00;11.70;;;21.10;71.10;;;;;;5114140;28;20482;-74
2021/06/23 10:12:00;;;;;;;15.33;13.70;;;21.10;70.70;;;;;;5114139;28;20441;-74
2021/06/23 10:14:29;;;;;;;12.70;11.27;;;21.10;70.40;;;;;;5114212;28;20427;-74
2021/06/23 10:16:56;;;;;;;18.63;12.00;;;21.10;70.30;;;;;;5114160;28;20893;-72
2021/06/23 10:19:23;;;;;;;12.63;10.90;;;21.10;70.10;;;;;;5113753;28;20936;-73
2021/06/23 10:21:52;;;;;;;15.60;12.40;;;21.10;70.30;;;;;;5113828;28;20798;-72
2021/06/23 10:24:19;;;;;;;11.93;10.80;;;21.10;70.30;;;;;;5113797;28;20824;-72
2021/06/23 10:26:48;;;;;;;13.30;11.93;;;21.10;70.40;;;;;;5114028;28;20443;-72
2021/06/23 10:29:19;;;;;;;17.60;12.13;;;21.10;71.20;;;;;;5113899;28;20442;-73
2021/06/23 10:31:47;;;;;;;11.97;10.37;;;21.10;70.00;;;;;;5114418;28;20427;-72
2021/06/23 10:34:17;;;;;;;11.97;10.63;;;21.10;69.70;;;;;;5113515;28;20446;-71
2021/06/23 10:36:44;;;;;;;13.87;12.47;;;21.20;70.20;;;;;;5113896;28;20439;-72
2021/06/23 10:39:14;;;;;;;16.13;14.33;;;21.30;70.70;;;;;;5113900;28;20442;-71
2021/06/23 10:41:43;;;;;;;15.97;14.33;;;21.30;71.20;;;;;;5113908;28;20473;-71
2021/06/23 10:44:21;;;;;;;19.53;13.90;;;21.40;71.70;;;;;;5113509;28;20963;-72
2021/06/23 10:46:50;;;;;;;16.37;14.10;;;21.40;72.00;;;;;;5113543;28;20427;-71
2021/06/23 10:49:37;;;;;;;15.73;12.93;;;21.40;71.50;;;;;;5113704;28;20424;-72
2021/06/23 10:52:31;;;;;;;17.33;15.50;;;21.40;71.70;;;;;;5113542;28;20912;-72
2021/06/23 10:55:00;;;;;;;18.13;13.90;;;21.40;71.50;;;;;;5113482;28;20419;-72
2021/06/23 10:57:28;;;;;;;14.40;12.93;;;21.30;71.30;;;;;;5113430;28;20789;-72
2021/06/23 10:59:56;;;;;;;17.60;14.50;;;21.30;71.40;;;;;;5113368;28;20455;-71
2021/06/23 11:02:34;;;;;;;19.70;15.77;;;21.30;70.60;;;;;;5113704;28;20419;-71
2021/06/23 11:05:11;;;;;;;16.40;14.50;;;21.30;70.80;;;;;;5113349;28;20434;-72
2021/06/23 11:07:44;;;;;;;15.63;14.03;;;21.30;70.80;;;;;;5113313;28;20434;-72
2021/06/23 11:10:31;;;;;;;19.23;14.53;;;21.30;71.30;;;;;;5113453;28;20486;-72
2021/06/23 11:13:00;;;;;;;15.20;12.70;;;21.30;71.60;;;;;;5113241;28;20431;-72
2021/06/23 11:15:36;;;;;;;16.30;13.87;;;21.30;70.90;;;;;;5113574;28;20427;-72
2021/06/23 11:18:22;;;;;;;16.53;11.80;;;21.30;70.40;;;;;;5113573;28;20427;-72
2021/06/23 11:20:50;;;;;;;14.70;11.43;;;21.30;70.20;;;;;;5113069;28;20478;-72
2021/06/23 11:23:46;;;;;;;18.47;13.53;;;21.20;70.30;;;;;;5113488;28;20807;-72
2021/06/23 11:26:48;;;;;;;13.50;12.07;;;21.20;70.80;;;;;;5113444;28;20443;-73
2021/06/23 11:29:32;;;;;;;18.97;13.27;;;21.10;70.60;;;;;;5113187;28;20907;-73
2021/06/23 11:32:05;;;;;;;10.57;9.00;;;21.20;70.80;;;;;;5113444;28;20438;-73
2021/06/23 11:34:54;;;;;;;14.37;12.20;;;21.30;71.20;;;;;;5113411;28;20474;-73
2021/06/23 11:37:23;;;;;;;12.93;11.20;;;21.50;70.90;;;;;;5113362;28;20491;-73
2021/06/23 11:39:50;;;;;;;16.40;13.13;;;21.70;70.50;;;;;;5113940;28;20470;-73
2021/06/23 11:42:20;;;;;;;19.77;11.27;;;21.80;69.10;;;;;;5113317;28;20431;-73
2021/06/23 11:44:47;;;;;;;18.70;12.10;;;21.90;67.60;;;;;;5114607;28;20541;-73
2021/06/23 11:47:14;;;;;;;18.20;10.93;;;22.00;67.50;;;;;;5117678;28;20451;-73
2021/06/23 11:49:42;;;;;;;12.73;10.83;;;22.10;66.90;;;;;;5116446;28;20843;-73
2021/06/23 11:52:10;;;;;;;14.03;10.47;;;22.20;67.10;;;;;;5116542;28;20933;-73
2021/06/23 11:54:37;;;;;;;10.27;8.17;;;22.40;67.30;;;;;;5116795;28;20803;-73
2021/06/23 11:57:04;;;;;;;10.07;8.90;;;22.50;66.50;;;;;;5116707;28;20468;-73
2021/06/23 11:59:32;;;;;;;12.40;10.30;;;22.60;66.10;;;;;;5116284;28;20952;-73
2021/06/23 12:01:59;;;;;;;10.60;9.50;;;22.70;64.10;;;;;;5116615;28;20798;-74
2021/06/23 12:04:28;;;;;;;11.20;9.60;;;22.80;62.20;;;;;;5116536;28;20462;-74
2021/06/23 12:06:55;;;;;;;11.17;9.17;;;22.90;63.40;;;;;;5116582;28;20849;-73
2021/06/23 12:09:21;;;;;;;15.33;11.30;;;23.10;64.40;;;;;;5116398;28;20435;-73
2021/06/23 12:11:48;;;;;;;12.90;10.20;;;23.30;63.60;;;;;;5116410;28;20474;-74
2021/06/23 12:14:15;;;;;;;10.77;8.07;;;23.40;62.40;;;;;;5116113;28;20927;-73
2021/06/23 12:16:44;;;;;;;11.20;9.10;;;23.60;61.60;;;;;;5116059;28;20538;-74
2021/06/23 12:19:11;;;;;;;11.00;8.80;;;23.70;60.60;;;;;;5116159;28;20808;-73
2021/06/23 12:21:38;;;;;;;12.23;8.90;;;23.70;58.70;;;;;;5116200;28;20493;-73
2021/06/23 12:24:05;;;;;;;13.63;9.50;;;23.60;59.20;;;;;;5116262;28;20435;-73
2021/06/23 12:26:33;;;;;;;12.10;9.37;;;23.60;59.90;;;;;;5116169;27;20496;-73
2021/06/23 12:29:00;;;;;;;12.40;8.50;;;23.60;59.60;;;;;;5116139;28;20427;-74
2021/06/23 12:31:27;;;;;;;13.73;10.03;;;23.60;59.10;;;;;;5115614;28;20848;-73
2021/06/23 12:33:55;;;;;;;12.80;8.97;;;23.60;58.90;;;;;;5116068;28;20451;-73
2021/06/23 12:36:21;;;;;;;14.90;9.93;;;23.80;59.50;;;;;;5116071;28;20427;-73
2021/06/23 12:38:48;;;;;;;11.03;9.07;;;24.00;59.70;;;;;;5115916;28;20438;-73
2021/06/23 12:41:15;;;;;;;13.00;10.00;;;24.10;57.20;;;;;;5115797;28;20858;-72
2021/06/23 12:43:42;;;;;;;10.40;9.37;;;24.20;57.50;;;;;;5115850;28;20438;-73
2021/06/23 12:46:09;;;;;;;11.83;9.07;;;24.30;57.00;;;;;;5115765;28;20450;-73
2021/06/23 12:48:37;;;;;;;15.13;9.67;;;24.50;57.70;;;;;;5115714;28;20453;-73
2021/06/23 12:51:07;;;;;;;12.90;7.53;;;24.70;56.90;;;;;;5115641;28;20506;-73